Time;durP1;ratioP1;P1;durP2;ratioP2;P2;SDS_P1;SDS_P2;PMS_P1;PMS_P2;Temp;Humidity;BMP_temperature;BMP_pressure;BME280_temperature;BME280_humidity;BME280_pressure;Samples;Min_cycle;Max_cycle;Signal;HPM_P1;HPM_P2
2024/04/17 00:02:08;;;;;;;;;;;;;;;;;;5468798;26;19936;-68
2024/04/17 00:04:33;;;;;;;;;;;;;;;;;;5464174;26;19936;-68
2024/04/17 00:06:58;;;;;;;;;;;;;;;;;;5480406;25;19963;-68
2024/04/17 00:09:23;;;;;;;;;;;;;;;;;;5470098;26;19939;-68
2024/04/17 00:11:49;;;;;;;;;;;;;;;;;;5485154;25;19936;-68
2024/04/17 00:14:14;;;;;;;;;;;;;;;;;;5484539;25;20476;-68
2024/04/17 00:16:39;;;;;;;;;;;;;;;;;;5482420;25;19928;-68
2024/04/17 00:19:04;;;;;;;;;;;;;;;;;;5481986;25;19935;-68
2024/04/17 00:21:29;;;;;;;;;;;;;;;;;;5486587;26;19934;-69
2024/04/17 00:23:55;;;;;;;;;;;;;;;;;;5475377;25;19937;-68
2024/04/17 00:26:20;;;;;;;;;;;;;;;;;;5474679;25;20491;-69
2024/04/17 00:28:45;;;;;;;;;;;;;;;;;;5467349;25;19940;-68
2024/04/17 00:31:11;;;;;;;;;;;;;;;;;;5463176;25;19928;-68
2024/04/17 00:33:36;;;;;;;;;;;;;;;;;;5456150;26;19974;-68
2024/04/17 00:36:01;;;;;;;;;;;;;;;;;;5437170;26;20448;-71
2024/04/17 00:38:26;;;;;;;;;;;;;;;;;;5443995;26;20302;-68
2024/04/17 00:40:51;;;;;;;;;;;;;;;;;;5431858;26;19929;-68
2024/04/17 00:43:16;;;;;;;;;;;;;;;;;;5460609;26;20231;-68
2024/04/17 00:45:41;;;;;;;;;;;;;;;;;;5479142;26;19934;-68
2024/04/17 00:48:06;;;;;;;;;;;;;;;;;;5480341;25;20424;-69
2024/04/17 00:50:31;;;;;;;;;;;;;;;;;;5452865;26;19928;-68
2024/04/17 00:52:56;;;;;;;;;;;;;;;;;;5471447;25;19936;-68
2024/04/17 00:55:22;;;;;;;;;;;;;;;;;;5469785;25;19935;-68
2024/04/17 00:57:47;;;;;;;;;;;;;;;;;;5473890;25;19929;-68
2024/04/17 01:00:12;;;;;;;;;;;;;;;;;;5459470;26;19929;-69
2024/04/17 01:02:37;;;;;;;;;;;;;;;;;;5477574;25;20360;-68
2024/04/17 01:05:02;;;;;;;;;;;;;;;;;;5470917;25;19937;-68
2024/04/17 01:07:27;;;;;;;;;;;;;;;;;;5457735;26;20013;-68
2024/04/17 01:09:54;;;;;;;;;;;;;;;;;;5458929;25;19952;-68
2024/04/17 01:12:19;;;;;;;;;;;;;;;;;;5441307;26;19935;-69
2024/04/17 01:14:44;;;;;;;;;;;;;;;;;;5454646;26;19928;-68
2024/04/17 01:17:09;;;;;;;;;;;;;;;;;;5480178;26;19927;-68
2024/04/17 01:19:34;;;;;;;;;;;;;;;;;;5478112;26;20285;-68
2024/04/17 01:21:59;;;;;;;;;;;;;;;;;;5489561;25;19936;-68
2024/04/17 01:24:24;;;;;;;;;;;;;;;;;;5448506;25;19940;-68
2024/04/17 01:26:49;;;;;;;;;;;;;;;;;;5443719;26;19940;-68
2024/04/17 01:29:15;;;;;;;;;;;;;;;;;;5463249;26;20237;-68
2024/04/17 01:31:40;;;;;;;;;;;;;;;;;;5464809;26;19938;-68
2024/04/17 01:34:05;;;;;;;;;;;;;;;;;;5454752;25;19960;-70
2024/04/17 01:36:30;;;;;;;;;;;;;;;;;;5475775;26;19995;-68
2024/04/17 01:38:55;;;;;;;;;;;;;;;;;;5480881;25;19935;-68
2024/04/17 01:41:20;;;;;;;;;;;;;;;;;;5470450;25;20004;-68
2024/04/17 01:43:45;;;;;;;;;;;;;;;;;;5477410;26;20425;-68
2024/04/17 01:46:10;;;;;;;;;;;;;;;;;;5479312;25;19954;-69
2024/04/17 01:48:35;;;;;;;;;;;;;;;;;;5463119;26;19928;-68
2024/04/17 01:51:00;;;;;;;;;;;;;;;;;;5471334;25;19942;-68
2024/04/17 01:53:25;;;;;;;;;;;;;;;;;;5479748;25;19935;-68
2024/04/17 01:55:51;;;;;;;;;;;;;;;;;;5452279;26;19998;-68
2024/04/17 01:58:16;;;;;;;;;;;;;;;;;;5477517;25;19928;-68
2024/04/17 02:00:41;;;;;;;;;;;;;;;;;;5474547;25;20243;-68
2024/04/17 02:03:06;;;;;;;;;;;;;;;;;;5449619;26;19936;-68
2024/04/17 02:05:31;;;;;;;;;;;;;;;;;;5465696;25;20273;-69
2024/04/17 02:07:56;;;;;;;;;;;;;;;;;;5478664;26;19928;-68
2024/04/17 02:10:22;;;;;;;;;;;;;;;;;;5472372;25;20509;-68
2024/04/17 02:12:47;;;;;;;;;;;;;;;;;;5443574;25;19967;-68
2024/04/17 02:15:12;;;;;;;;;;;;;;;;;;5459397;26;19928;-68
2024/04/17 02:17:37;;;;;;;;;;;;;;;;;;5473110;26;19935;-68
2024/04/17 02:20:05;;;;;;;;;;;;;;;;;;5476588;25;19934;-68
2024/04/17 02:22:30;;;;;;;;;;;;;;;;;;5479195;26;19928;-67
2024/04/17 02:24:55;;;;;;;;;;;;;;;;;;5480099;26;19928;-67
2024/04/17 02:27:20;;;;;;;;;;;;;;;;;;5479907;26;20047;-67
2024/04/17 02:29:47;;;;;;;;;;;;;;;;;;5478256;26;19935;-67
2024/04/17 02:32:12;;;;;;;;;;;;;;;;;;5460225;25;19928;-68
2024/04/17 02:34:37;;;;;;;;;;;;;;;;;;5479729;25;19973;-68
2024/04/17 02:37:02;;;;;;;;;;;;;;;;;;5481161;26;19996;-68
2024/04/17 02:39:27;;;;;;;;;;;;;;;;;;5461262;25;19998;-67
2024/04/17 02:41:52;;;;;;;;;;;;;;;;;;5455193;25;19935;-67
2024/04/17 02:44:17;;;;;;;;;;;;;;;;;;5474194;25;20084;-67
2024/04/17 02:46:42;;;;;;;;;;;;;;;;;;5465100;25;19932;-67
2024/04/17 02:49:07;;;;;;;;;;;;;;;;;;5458867;25;19928;-67
2024/04/17 02:51:33;;;;;;;;;;;;;;;;;;5477082;25;20334;-67
2024/04/17 02:53:58;;;;;;;;;;;;;;;;;;5477483;26;19928;-67
2024/04/17 02:56:23;;;;;;;;;;;;;;;;;;5471111;25;19945;-67
2024/04/17 02:58:48;;;;;;;;;;;;;;;;;;5427332;26;20369;-67
2024/04/17 03:01:13;;;;;;;;;;;;;;;;;;5453128;26;19935;-67
2024/04/17 03:03:38;;;;;;;;;;;;;;;;;;5478088;25;19928;-67
2024/04/17 03:06:03;;;;;;;;;;;;;;;;;;5464249;25;20055;-67
2024/04/17 03:08:28;;;;;;;;;;;;;;;;;;5456727;26;19936;-67
2024/04/17 03:10:53;;;;;;;;;;;;;;;;;;5462819;25;20344;-67
2024/04/17 03:13:18;;;;;;;;;;;;;;;;;;5476568;25;19963;-67
2024/04/17 03:15:43;;;;;;;;;;;;;;;;;;5475467;25;19935;-67
2024/04/17 03:18:08;;;;;;;;;;;;;;;;;;5465908;26;19935;-68
2024/04/17 03:20:34;;;;;;;;;;;;;;;;;;5478153;25;19928;-67
2024/04/17 03:22:59;;;;;;;;;;;;;;;;;;5478952;25;19936;-67
2024/04/17 03:25:24;;;;;;;;;;;;;;;;;;5471218;25;20361;-67
2024/04/17 03:27:49;;;;;;;;;;;;;;;;;;5461547;26;20038;-67
2024/04/17 03:30:14;;;;;;;;;;;;;;;;;;5452412;26;20002;-67
2024/04/17 03:32:39;;;;;;;;;;;;;;;;;;5462963;26;19939;-67
2024/04/17 03:35:05;;;;;;;;;;;;;;;;;;5479809;25;20000;-67
2024/04/17 03:37:30;;;;;;;;;;;;;;;;;;5478286;25;20281;-67
2024/04/17 03:39:55;;;;;;;;;;;;;;;;;;5452829;26;19932;-67
2024/04/17 03:42:20;;;;;;;;;;;;;;;;;;5475221;25;19935;-67
2024/04/17 03:44:45;;;;;;;;;;;;;;;;;;5458542;26;20193;-67
2024/04/17 03:47:10;;;;;;;;;;;;;;;;;;5469466;25;20258;-67
2024/04/17 03:49:35;;;;;;;;;;;;;;;;;;5456073;25;20141;-67
2024/04/17 03:52:00;;;;;;;;;;;;;;;;;;5463702;26;19996;-67
2024/04/17 03:54:25;;;;;;;;;;;;;;;;;;5477727;25;19989;-67
2024/04/17 03:56:50;;;;;;;;;;;;;;;;;;5473143;25;19928;-67
2024/04/17 03:59:15;;;;;;;;;;;;;;;;;;5478126;25;20336;-67
2024/04/17 04:01:40;;;;;;;;;;;;;;;;;;5462437;25;19988;-67
2024/04/17 04:04:05;;;;;;;;;;;;;;;;;;5428322;26;19936;-68
2024/04/17 04:06:31;;;;;;;;;;;;;;;;;;5433201;26;19940;-67
2024/04/17 04:08:56;;;;;;;;;;;;;;;;;;5461674;26;20453;-68
2024/04/17 04:11:21;;;;;;;;;;;;;;;;;;5461742;26;19955;-68
2024/04/17 04:13:46;;;;;;;;;;;;;;;;;;5481956;26;19928;-67
2024/04/17 04:16:11;;;;;;;;;;;;;;;;;;5471374;25;20226;-67
2024/04/17 04:18:36;;;;;;;;;;;;;;;;;;5474010;25;19928;-67
2024/04/17 04:21:01;;;;;;;;;;;;;;;;;;5474843;25;19929;-67
2024/04/17 04:23:26;;;;;;;;;;;;;;;;;;5472276;25;20334;-68
2024/04/17 04:25:51;;;;;;;;;;;;;;;;;;5481681;25;19935;-67
2024/04/17 04:28:16;;;;;;;;;;;;;;;;;;5476839;25;20260;-68
2024/04/17 04:30:42;;;;;;;;;;;;;;;;;;5461914;26;19993;-67
2024/04/17 04:33:07;;;;;;;;;;;;;;;;;;5441948;26;19997;-68
2024/04/17 04:35:32;;;;;;;;;;;;;;;;;;5437279;25;19934;-68
2024/04/17 04:37:57;;;;;;;;;;;;;;;;;;5462816;26;19936;-67
2024/04/17 04:40:22;;;;;;;;;;;;;;;;;;5466226;26;19935;-68
2024/04/17 04:42:47;;;;;;;;;;;;;;;;;;5479912;25;19997;-68
2024/04/17 04:45:12;;;;;;;;;;;;;;;;;;5472398;25;20005;-68
2024/04/17 04:47:37;;;;;;;;;;;;;;;;;;5474457;25;19928;-67
2024/04/17 04:50:02;;;;;;;;;;;;;;;;;;5474679;25;19928;-67
2024/04/17 04:52:27;;;;;;;;;;;;;;;;;;5472425;25;19956;-67
2024/04/17 04:54:52;;;;;;;;;;;;;;;;;;5475367;25;19928;-67
2024/04/17 04:57:19;;;;;;;;;;;;;;;;;;5478964;26;19927;-67
2024/04/17 04:59:45;;;;;;;;;;;;;;;;;;5481557;25;19935;-67
2024/04/17 05:02:10;;;;;;;;;;;;;;;;;;5480965;25;19932;-68
2024/04/17 05:04:35;;;;;;;;;;;;;;;;;;5466558;25;19934;-68
2024/04/17 05:07:00;;;;;;;;;;;;;;;;;;5469277;25;20310;-67
2024/04/17 05:09:26;;;;;;;;;;;;;;;;;;5463999;26;19928;-67
2024/04/17 05:11:52;;;;;;;;;;;;;;;;;;5468283;26;19928;-67
2024/04/17 05:14:17;;;;;;;;;;;;;;;;;;5481095;25;20364;-67
2024/04/17 05:16:42;;;;;;;;;;;;;;;;;;5468184;25;20274;-68
2024/04/17 05:19:07;;;;;;;;;;;;;;;;;;5468228;25;20276;-68
2024/04/17 05:21:32;;;;;;;;;;;;;;;;;;5494666;25;19936;-68
2024/04/17 05:23:57;;;;;;;;;;;;;;;;;;5480356;25;19928;-67
2024/04/17 05:26:22;;;;;;;;;;;;;;;;;;5479174;25;19944;-67
2024/04/17 05:28:47;;;;;;;;;;;;;;;;;;5465810;25;19928;-68
2024/04/17 05:31:12;;;;;;;;;;;;;;;;;;5472498;25;20373;-67
2024/04/17 05:33:37;;;;;;;;;;;;;;;;;;5472744;25;19928;-67
2024/04/17 05:36:02;;;;;;;;;;;;;;;;;;5475854;25;19940;-68
2024/04/17 05:38:28;;;;;;;;;;;;;;;;;;5465625;25;19953;-67
2024/04/17 05:40:53;;;;;;;;;;;;;;;;;;5479106;25;20350;-68
2024/04/17 05:43:18;;;;;;;;;;;;;;;;;;5478163;25;20361;-68
2024/04/17 05:45:43;;;;;;;;;;;;;;;;;;5468420;26;19972;-68
2024/04/17 05:48:08;;;;;;;;;;;;;;;;;;5479591;25;19997;-68
2024/04/17 05:50:33;;;;;;;;;;;;;;;;;;5477249;26;20321;-68
2024/04/17 05:52:58;;;;;;;;;;;;;;;;;;5464669;26;19928;-68
2024/04/17 05:55:23;;;;;;;;;;;;;;;;;;5480393;25;19932;-68
2024/04/17 05:57:49;;;;;;;;;;;;;;;;;;5478358;25;20004;-68
2024/04/17 06:00:14;;;;;;;;;;;;;;;;;;5462552;25;19928;-68
2024/04/17 06:02:39;;;;;;;;;;;;;;;;;;5465673;25;20731;-68
2024/04/17 06:05:04;;;;;;;;;;;;;;;;;;5465487;26;19936;-68
2024/04/17 06:07:29;;;;;;;;;;;;;;;;;;5462006;26;20532;-68
2024/04/17 06:09:54;;;;;;;;;;;;;;;;;;5466437;25;19928;-68
2024/04/17 06:12:19;;;;;;;;;;;;;;;;;;5464717;25;19934;-67
2024/04/17 06:14:44;;;;;;;;;;;;;;;;;;5461384;26;20353;-68
2024/04/17 06:17:09;;;;;;;;;;;;;;;;;;5453215;26;19929;-68
2024/04/17 06:19:35;;;;;;;;;;;;;;;;;;5462248;25;19936;-68
2024/04/17 06:22:00;;;;;;;;;;;;;;;;;;5466157;25;19928;-68
2024/04/17 06:24:25;;;;;;;;;;;;;;;;;;5458275;25;20016;-68
2024/04/17 06:26:50;;;;;;;;;;;;;;;;;;5457835;25;19929;-66
2024/04/17 06:29:15;;;;;;;;;;;;;;;;;;5449602;26;19939;-67
2024/04/17 06:31:40;;;;;;;;;;;;;;;;;;5452541;26;20597;-67
2024/04/17 06:34:05;;;;;;;;;;;;;;;;;;5478698;25;19936;-68
2024/04/17 06:36:30;;;;;;;;;;;;;;;;;;5475851;26;20252;-67
2024/04/17 06:38:55;;;;;;;;;;;;;;;;;;5479761;25;19928;-67
2024/04/17 06:41:20;;;;;;;;;;;;;;;;;;5475907;25;19928;-67
2024/04/17 06:43:45;;;;;;;;;;;;;;;;;;5473413;25;19940;-67
2024/04/17 06:46:11;;;;;;;;;;;;;;;;;;5478758;25;20276;-67
2024/04/17 06:48:36;;;;;;;;;;;;;;;;;;5479923;25;19934;-66
2024/04/17 06:51:01;;;;;;;;;;;;;;;;;;5478158;25;19956;-66
2024/04/17 06:53:26;;;;;;;;;;;;;;;;;;5477426;25;19939;-66
2024/04/17 06:55:51;;;;;;;;;;;;;;;;;;5479045;25;20436;-66
2024/04/17 06:58:16;;;;;;;;;;;;;;;;;;5467953;25;19936;-67
2024/04/17 07:00:41;;;;;;;;;;;;;;;;;;5479714;25;19987;-67
2024/04/17 07:03:06;;;;;;;;;;;;;;;;;;5462079;25;19932;-66
2024/04/17 07:05:31;;;;;;;;;;;;;;;;;;5442358;26;19935;-70
2024/04/17 07:07:57;;;;;;;;;;;;;;;;;;5454078;26;19928;-67
2024/04/17 07:10:22;;;;;;;;;;;;;;;;;;5472187;25;21316;-67
2024/04/17 07:12:47;;;;;;;;;;;;;;;;;;5472120;25;19946;-67
2024/04/17 07:15:12;;;;;;;;;;;;;;;;;;5478540;25;20004;-66
2024/04/17 07:17:37;;;;;;;;;;;;;;;;;;5476741;25;19928;-68
2024/04/17 07:20:02;;;;;;;;;;;;;;;;;;5479950;25;19928;-69
2024/04/17 07:22:27;;;;;;;;;;;;;;;;;;5478262;25;19935;-66
2024/04/17 07:24:52;;;;;;;;;;;;;;;;;;5478666;25;19934;-66
2024/04/17 07:27:17;;;;;;;;;;;;;;;;;;5479120;25;20296;-66
2024/04/17 07:29:43;;;;;;;;;;;;;;;;;;5477990;25;19939;-66
2024/04/17 07:32:08;;;;;;;;;;;;;;;;;;5478001;25;19928;-67
2024/04/17 07:34:33;;;;;;;;;;;;;;;;;;5475122;26;19928;-66
2024/04/17 07:36:58;;;;;;;;;;;;;;;;;;5466384;26;19936;-68
2024/04/17 07:39:23;;;;;;;;;;;;;;;;;;5457217;26;19936;-68
2024/04/17 07:41:48;;;;;;;;;;;;;;;;;;5471752;26;19975;-68
2024/04/17 07:44:13;;;;;;;;;;;;;;;;;;5478783;26;20380;-68
2024/04/17 07:46:38;;;;;;;;;;;;;;;;;;5481493;26;19928;-69
2024/04/17 07:49:03;;;;;;;;;;;;;;;;;;5466560;26;19935;-69
2024/04/17 07:51:28;;;;;;;;;;;;;;;;;;5475735;26;19936;-69
2024/04/17 07:53:53;;;;;;;;;;;;;;;;;;5477591;25;19928;-69
2024/04/17 07:56:18;;;;;;;;;;;;;;;;;;5472377;26;19960;-69
2024/04/17 07:58:44;;;;;;;;;;;;;;;;;;5470248;25;20308;-69
2024/04/17 08:01:10;;;;;;;;;;;;;;;;;;5447140;26;19935;-69
2024/04/17 08:03:35;;;;;;;;;;;;;;;;;;5444543;26;20005;-69
2024/04/17 08:06:00;;;;;;;;;;;;;;;;;;5456753;25;20316;-69
2024/04/17 08:08:25;;;;;;;;;;;;;;;;;;5462424;25;20001;-69
2024/04/17 08:10:50;;;;;;;;;;;;;;;;;;5425461;26;20006;-69
2024/04/17 08:13:16;;;;;;;;;;;;;;;;;;5429224;26;19929;-69
2024/04/17 08:15:41;;;;;;;;;;;;;;;;;;5435413;26;20001;-69
2024/04/17 08:18:06;;;;;;;;;;;;;;;;;;5468989;25;20258;-69
2024/04/17 08:20:31;;;;;;;;;;;;;;;;;;5475697;25;19929;-69
2024/04/17 08:22:56;;;;;;;;;;;;;;;;;;5451976;26;19983;-69
2024/04/17 08:25:21;;;;;;;;;;;;;;;;;;5473447;25;19928;-69
2024/04/17 08:27:46;;;;;;;;;;;;;;;;;;5489227;25;20285;-69
2024/04/17 08:30:12;;;;;;;;;;;;;;;;;;5475870;26;19934;-69
2024/04/17 08:32:37;;;;;;;;;;;;;;;;;;5444791;26;20245;-70
2024/04/17 08:35:03;;;;;;;;;;;;;;;;;;5457023;26;19936;-69
2024/04/17 08:37:28;;;;;;;;;;;;;;;;;;5456582;26;19935;-67
2024/04/17 08:39:53;;;;;;;;;;;;;;;;;;5489092;25;19946;-67
2024/04/17 08:42:19;;;;;;;;;;;;;;;;;;5454273;26;19937;-67
2024/04/17 08:44:44;;;;;;;;;;;;;;;;;;5464032;26;19971;-67
2024/04/17 08:47:09;;;;;;;;;;;;;;;;;;5473471;25;19928;-67
2024/04/17 08:49:34;;;;;;;;;;;;;;;;;;5503258;25;19939;-69
2024/04/17 08:51:59;;;;;;;;;;;;;;;;;;5465182;26;19935;-70
2024/04/17 08:54:24;;;;;;;;;;;;;;;;;;5476957;25;19928;-69
2024/04/17 08:56:49;;;;;;;;;;;;;;;;;;5471859;26;19940;-69
2024/04/17 08:59:14;;;;;;;;;;;;;;;;;;5480121;26;20492;-67
2024/04/17 09:01:39;;;;;;;;;;;;;;;;;;5472593;26;19937;-67
2024/04/17 09:04:04;;;;;;;;;;;;;;;;;;5484346;25;19929;-67
2024/04/17 09:06:29;;;;;;;;;;;;;;;;;;5475166;26;19928;-67
2024/04/17 09:08:55;;;;;;;;;;;;;;;;;;5469500;25;19929;-67
2024/04/17 09:11:20;;;;;;;;;;;;;;;;;;5458906;26;21400;-66
2024/04/17 09:13:45;;;;;;;;;;;;;;;;;;5476708;25;20280;-66
2024/04/17 09:16:10;;;;;;;;;;;;;;;;;;5496534;25;20373;-67
2024/04/17 09:18:37;;;;;;;;;;;;;;;;;;5481444;26;19928;-66
2024/04/17 09:21:02;;;;;;;;;;;;;;;;;;5455516;26;20394;-67
2024/04/17 09:23:27;;;;;;;;;;;;;;;;;;5469481;25;20355;-67
2024/04/17 09:25:54;;;;;;;;;;;;;;;;;;5493616;25;19936;-66
2024/04/17 09:28:19;;;;;;;;;;;;;;;;;;5469040;25;20028;-66
2024/04/17 09:30:44;;;;;;;;;;;;;;;;;;5499920;25;19934;-66
2024/04/17 09:33:12;;;;;;;;;;;;;;;;;;5463798;26;19935;-66
2024/04/17 09:35:38;;;;;;;;;;;;;;;;;;5460819;25;20379;-66
2024/04/17 09:38:03;;;;;;;;;;;;;;;;;;5466633;26;19983;-66
2024/04/17 09:40:28;;;;;;;;;;;;;;;;;;5470052;25;19968;-66
2024/04/17 09:42:53;;;;;;;;;;;;;;;;;;5443734;25;19936;-66
2024/04/17 09:45:18;;;;;;;;;;;;;;;;;;5453507;25;19935;-66
2024/04/17 09:47:43;;;;;;;;;;;;;;;;;;5459444;26;19976;-66
2024/04/17 09:50:08;;;;;;;;;;;;;;;;;;5484293;25;19927;-66
2024/04/17 09:52:33;;;;;;;;;;;;;;;;;;5440939;26;20013;-66
2024/04/17 09:54:58;;;;;;;;;;;;;;;;;;5435253;26;20356;-66
2024/04/17 09:57:24;;;;;;;;;;;;;;;;;;5456899;26;19976;-66
2024/04/17 09:59:49;;;;;;;;;;;;;;;;;;5474946;26;19998;-66
2024/04/17 10:02:14;;;;;;;;;;;;;;;;;;5500390;25;19996;-67
2024/04/17 10:04:39;;;;;;;;;;;;;;;;;;5495205;25;19961;-66
2024/04/17 10:07:04;;;;;;;;;;;;;;;;;;5508155;25;19927;-66
2024/04/17 10:09:29;;;;;;;;;;;;;;;;;;5500917;26;19928;-66
2024/04/17 10:11:55;;;;;;;;;;;;;;;;;;5493170;25;19968;-67
2024/04/17 10:14:20;;;;;;;;;;;;;;;;;;5489204;25;20369;-67
2024/04/17 10:16:45;;;;;;;;;;;;;;;;;;5494722;26;19927;-66
2024/04/17 10:19:10;;;;;;;;;;;;;;;;;;5492049;25;20210;-66
2024/04/17 10:21:35;;;;;;;;;;;;;;;;;;5492962;25;20354;-66
2024/04/17 10:24:00;;;;;;;;;;;;;;;;;;5492568;25;19967;-66
2024/04/17 10:26:25;;;;;;;;;;;;;;;;;;5466217;25;19988;-67
2024/04/17 10:28:51;;;;;;;;;;;;;;;;;;5478251;25;19928;-67
2024/04/17 10:31:17;;;;;;;;;;;;;;;;;;5477846;25;19935;-67
2024/04/17 10:33:42;;;;;;;;;;;;;;;;;;5487039;25;19943;-66
2024/04/17 10:36:07;;;;;;;;;;;;;;;;;;5431386;26;19998;-67
2024/04/17 10:38:32;;;;;;;;;;;;;;;;;;5438448;26;19942;-66
2024/04/17 10:40:57;;;;;;;;;;;;;;;;;;5459551;25;19928;-66
2024/04/17 10:43:22;;;;;;;;;;;;;;;;;;5467851;25;20042;-66
2024/04/17 10:45:47;;;;;;;;;;;;;;;;;;5468686;25;19936;-66
2024/04/17 10:48:12;;;;;;;;;;;;;;;;;;5464518;25;19929;-66
2024/04/17 10:50:37;;;;;;;;;;;;;;;;;;5471585;25;19928;-66
2024/04/17 10:53:03;;;;;;;;;;;;;;;;;;5472713;25;20316;-66
2024/04/17 10:55:28;;;;;;;;;;;;;;;;;;5472288;25;20357;-66
2024/04/17 10:57:53;;;;;;;;;;;;;;;;;;5470078;25;20250;-66
2024/04/17 11:00:18;;;;;;;;;;;;;;;;;;5468636;25;19947;-66
2024/04/17 11:02:43;;;;;;;;;;;;;;;;;;5446337;25;19931;-66
2024/04/17 11:05:08;;;;;;;;;;;;;;;;;;5456865;26;19944;-66
2024/04/17 11:07:33;;;;;;;;;;;;;;;;;;5456499;26;20509;-66
2024/04/17 11:09:58;;;;;;;;;;;;;;;;;;5442383;26;19929;-66
2024/04/17 11:12:23;;;;;;;;;;;;;;;;;;5462898;26;20324;-67
2024/04/17 11:14:48;;;;;;;;;;;;;;;;;;5448863;26;20003;-66
2024/04/17 11:17:14;;;;;;;;;;;;;;;;;;5469789;26;19928;-66
2024/04/17 11:19:39;;;;;;;;;;;;;;;;;;5470922;26;20004;-66
2024/04/17 11:22:04;;;;;;;;;;;;;;;;;;5438188;26;19960;-67
2024/04/17 11:24:30;;;;;;;;;;;;;;;;;;5465706;26;19937;-67
2024/04/17 11:26:56;;;;;;;;;;;;;;;;;;5448064;26;19936;-67
2024/04/17 11:29:21;;;;;;;;;;;;;;;;;;5469728;26;19936;-67
2024/04/17 11:31:46;;;;;;;;;;;;;;;;;;5472257;26;19927;-67
2024/04/17 11:34:11;;;;;;;;;;;;;;;;;;5480198;25;20064;-67
2024/04/17 11:36:36;;;;;;;;;;;;;;;;;;5470959;26;19939;-67
2024/04/17 11:39:02;;;;;;;;;;;;;;;;;;5474664;26;19928;-67
2024/04/17 11:41:27;;;;;;;;;;;;;;;;;;5460918;26;20255;-67
2024/04/17 11:43:52;;;;;;;;;;;;;;;;;;5475020;26;19928;-66
2024/04/17 11:46:17;;;;;;;;;;;;;;;;;;5493801;26;20044;-66
2024/04/17 11:48:43;;;;;;;;;;;;;;;;;;5487837;25;19938;-66
2024/04/17 11:51:08;;;;;;;;;;;;;;;;;;5454202;25;19936;-66
2024/04/17 11:53:33;;;;;;;;;;;;;;;;;;5472162;26;20283;-66
2024/04/17 11:55:58;;;;;;;;;;;;;;;;;;5468989;25;19948;-66
2024/04/17 11:58:23;;;;;;;;;;;;;;;;;;5464530;25;19928;-66
2024/04/17 12:00:49;;;;;;;;;;;;;;;;;;5485974;25;19927;-65
2024/04/17 12:03:14;;;;;;;;;;;;;;;;;;5447094;25;19929;-65
2024/04/17 12:05:39;;;;;;;;;;;;;;;;;;5448089;26;19937;-65
2024/04/17 12:08:04;;;;;;;;;;;;;;;;;;5470560;25;19996;-65
2024/04/17 12:10:29;;;;;;;;;;;;;;;;;;5465288;26;19932;-65
2024/04/17 12:12:54;;;;;;;;;;;;;;;;;;5460959;26;20338;-65
2024/04/17 12:15:20;;;;;;;;;;;;;;;;;;5484001;25;19935;-65
2024/04/17 12:17:45;;;;;;;;;;;;;;;;;;5477001;25;19960;-66
2024/04/17 12:20:10;;;;;;;;;;;;;;;;;;5447527;25;19928;-65
2024/04/17 12:22:35;;;;;;;;;;;;;;;;;;5481598;26;19929;-65
2024/04/17 12:27:45;;;;;;;;;;;;;;;;;;5461869;26;19935;-65
2024/04/17 12:30:10;;;;;;;;;;;;;;;;;;5467785;26;19947;-66
2024/04/17 12:32:35;;;;;;;;;;;;;;;;;;5465834;26;19928;-65
2024/04/17 12:35:00;;;;;;;;;;;;;;;;;;5471758;25;19928;-65
2024/04/17 12:37:25;;;;;;;;;;;;;;;;;;5447813;26;20351;-65
2024/04/17 12:39:50;;;;;;;;;;;;;;;;;;5463713;26;19932;-65
2024/04/17 12:42:16;;;;;;;;;;;;;;;;;;5466289;26;19952;-65
2024/04/17 12:44:41;;;;;;;;;;;;;;;;;;5474011;25;19928;-65
2024/04/17 12:47:06;;;;;;;;;;;;;;;;;;5469940;25;20268;-65
2024/04/17 12:49:31;;;;;;;;;;;;;;;;;;5484177;25;20313;-65
2024/04/17 12:51:56;;;;;;;;;;;;;;;;;;5469727;25;19936;-65
2024/04/17 12:54:21;;;;;;;;;;;;;;;;;;5463711;26;20303;-64
2024/04/17 12:56:46;;;;;;;;;;;;;;;;;;5468002;25;19938;-67
2024/04/17 12:59:11;;;;;;;;;;;;;;;;;;5479069;25;20273;-65
2024/04/17 13:01:36;;;;;;;;;;;;;;;;;;5492514;25;19935;-65
2024/04/17 13:04:02;;;;;;;;;;;;;;;;;;5463523;25;19963;-65
2024/04/17 13:06:27;;;;;;;;;;;;;;;;;;5470078;26;19929;-65
2024/04/17 13:08:53;;;;;;;;;;;;;;;;;;5473409;26;19927;-65
2024/04/17 13:11:18;;;;;;;;;;;;;;;;;;5470351;25;20391;-64
2024/04/17 13:13:43;;;;;;;;;;;;;;;;;;5476339;25;19951;-65
2024/04/17 13:16:08;;;;;;;;;;;;;;;;;;5493448;25;20365;-65
2024/04/17 13:18:34;;;;;;;;;;;;;;;;;;5488293;25;19936;-65
2024/04/17 13:20:59;;;;;;;;;;;;;;;;;;5505321;25;19928;-64
2024/04/17 13:23:24;;;;;;;;;;;;;;;;;;5480868;26;19935;-65
2024/04/17 13:25:49;;;;;;;;;;;;;;;;;;5480521;26;19938;-65
2024/04/17 13:28:14;;;;;;;;;;;;;;;;;;5497704;25;19927;-65
2024/04/17 13:30:39;;;;;;;;;;;;;;;;;;5465803;26;20364;-67
2024/04/17 13:33:04;;;;;;;;;;;;;;;;;;5464825;26;19935;-67
2024/04/17 13:35:29;;;;;;;;;;;;;;;;;;5488533;25;19928;-67
2024/04/17 13:37:54;;;;;;;;;;;;;;;;;;5472666;25;20495;-66
2024/04/17 13:40:20;;;;;;;;;;;;;;;;;;5470797;26;19928;-67
2024/04/17 13:42:45;;;;;;;;;;;;;;;;;;5466759;25;19928;-67
2024/04/17 13:45:10;;;;;;;;;;;;;;;;;;5476236;26;19996;-66
2024/04/17 13:47:36;;;;;;;;;;;;;;;;;;5467263;25;20001;-67
2024/04/17 13:50:01;;;;;;;;;;;;;;;;;;5487653;25;20249;-67
2024/04/17 13:52:29;;;;;;;;;;;;;;;;;;5465662;25;19956;-67
2024/04/17 13:54:54;;;;;;;;;;;;;;;;;;5494302;25;19936;-66
2024/04/17 13:57:19;;;;;;;;;;;;;;;;;;5473602;26;19975;-67
2024/04/17 13:59:45;;;;;;;;;;;;;;;;;;5472483;26;19928;-67
2024/04/17 14:02:10;;;;;;;;;;;;;;;;;;5464583;26;19955;-68
2024/04/17 14:04:35;;;;;;;;;;;;;;;;;;5491674;26;20335;-66
2024/04/17 14:07:00;;;;;;;;;;;;;;;;;;5473085;25;19929;-67
2024/04/17 14:09:25;;;;;;;;;;;;;;;;;;5452959;26;19957;-66
2024/04/17 14:11:50;;;;;;;;;;;;;;;;;;5481571;26;19927;-66
2024/04/17 14:14:16;;;;;;;;;;;;;;;;;;5468168;26;20409;-66
2024/04/17 14:16:41;;;;;;;;;;;;;;;;;;5488536;26;19928;-66
2024/04/17 14:19:06;;;;;;;;;;;;;;;;;;5455076;26;19928;-67
2024/04/17 14:21:31;;;;;;;;;;;;;;;;;;5450844;26;19932;-66
2024/04/17 14:23:56;;;;;;;;;;;;;;;;;;5460810;26;20268;-67
2024/04/17 14:26:24;;;;;;;;;;;;;;;;;;5445773;26;19929;-64
2024/04/17 14:28:49;;;;;;;;;;;;;;;;;;5477032;26;19936;-65
2024/04/17 14:31:14;;;;;;;;;;;;;;;;;;5462298;26;19928;-67
2024/04/17 14:33:40;;;;;;;;;;;;;;;;;;5468204;25;19928;-67
2024/04/17 14:36:05;;;;;;;;;;;;;;;;;;5474783;25;19928;-67
2024/04/17 14:38:30;;;;;;;;;;;;;;;;;;5474891;25;19943;-67
2024/04/17 14:40:55;;;;;;;;;;;;;;;;;;5467592;25;19999;-66
2024/04/17 14:43:20;;;;;;;;;;;;;;;;;;5459714;25;20009;-67
2024/04/17 14:45:45;;;;;;;;;;;;;;;;;;5458124;25;19956;-66
2024/04/17 14:48:10;;;;;;;;;;;;;;;;;;5479093;25;19927;-67
2024/04/17 14:50:35;;;;;;;;;;;;;;;;;;5479265;25;19956;-67
2024/04/17 14:53:00;;;;;;;;;;;;;;;;;;5458351;25;19941;-67
2024/04/17 14:55:25;;;;;;;;;;;;;;;;;;5457614;26;19940;-67
2024/04/17 14:57:55;;;;;;;;;;;;;;;;;;5479562;25;19928;-66
2024/04/17 15:00:20;;;;;;;;;;;;;;;;;;5473351;25;26180;-66
2024/04/17 15:02:45;;;;;;;;;;;;;;;;;;5478109;25;19935;-66
2024/04/17 15:05:11;;;;;;;;;;;;;;;;;;5479889;25;19928;-66
2024/04/17 15:07:36;;;;;;;;;;;;;;;;;;5455866;25;20326;-66
2024/04/17 15:10:01;;;;;;;;;;;;;;;;;;5443610;26;20099;-66
2024/04/17 15:12:26;;;;;;;;;;;;;;;;;;5449031;26;19936;-67
2024/04/17 15:14:51;;;;;;;;;;;;;;;;;;5477103;25;19981;-67
2024/04/17 15:17:16;;;;;;;;;;;;;;;;;;5479057;25;19967;-66
2024/04/17 15:19:41;;;;;;;;;;;;;;;;;;5478038;25;20029;-66
2024/04/17 15:22:07;;;;;;;;;;;;;;;;;;5489726;25;19928;-67
2024/04/17 15:24:32;;;;;;;;;;;;;;;;;;5478599;25;19934;-67
2024/04/17 15:26:59;;;;;;;;;;;;;;;;;;5479345;25;19928;-66
2024/04/17 15:29:24;;;;;;;;;;;;;;;;;;5477917;25;19928;-66
2024/04/17 15:31:49;;;;;;;;;;;;;;;;;;5492990;25;19981;-66
2024/04/17 15:34:14;;;;;;;;;;;;;;;;;;5478388;25;19932;-66
2024/04/17 15:36:39;;;;;;;;;;;;;;;;;;5485117;26;19928;-66
2024/04/17 15:39:04;;;;;;;;;;;;;;;;;;5478137;25;19996;-66
2024/04/17 15:41:29;;;;;;;;;;;;;;;;;;5478587;25;19938;-66
2024/04/17 15:43:56;;;;;;;;;;;;;;;;;;5477707;25;19940;-66
2024/04/17 15:46:24;;;;;;;;;;;;;;;;;;5478260;25;20408;-66
2024/04/17 15:48:49;;;;;;;;;;;;;;;;;;5478756;25;20644;-66
2024/04/17 15:51:14;;;;;;;;;;;;;;;;;;5478631;25;19927;-66
2024/04/17 15:53:39;;;;;;;;;;;;;;;;;;5470102;25;19937;-66
2024/04/17 15:56:04;;;;;;;;;;;;;;;;;;5461487;25;20004;-66
2024/04/17 15:58:29;;;;;;;;;;;;;;;;;;5471238;25;19928;-66
2024/04/17 16:00:54;;;;;;;;;;;;;;;;;;5463395;25;20329;-65
2024/04/17 16:03:19;;;;;;;;;;;;;;;;;;5452222;25;19936;-65
2024/04/17 16:05:46;;;;;;;;;;;;;;;;;;5448378;26;20005;-65
2024/04/17 16:08:11;;;;;;;;;;;;;;;;;;5470383;25;19928;-65
2024/04/17 16:10:36;;;;;;;;;;;;;;;;;;5467304;25;19929;-65
2024/04/17 16:13:02;;;;;;;;;;;;;;;;;;5444752;26;19936;-65
2024/04/17 16:15:27;;;;;;;;;;;;;;;;;;5434200;26;19996;-66
2024/04/17 16:17:53;;;;;;;;;;;;;;;;;;5422794;26;19935;-65
2024/04/17 16:20:18;;;;;;;;;;;;;;;;;;5437858;25;19939;-65
2024/04/17 16:22:43;;;;;;;;;;;;;;;;;;5477236;26;19928;-65
2024/04/17 16:25:08;;;;;;;;;;;;;;;;;;5477711;26;19928;-65
2024/04/17 16:27:34;;;;;;;;;;;;;;;;;;5477311;25;19932;-65
2024/04/17 16:29:59;;;;;;;;;;;;;;;;;;5432769;26;20373;-65
2024/04/17 16:32:24;;;;;;;;;;;;;;;;;;5444285;26;19929;-65
2024/04/17 16:34:49;;;;;;;;;;;;;;;;;;5446414;26;19936;-65